Time;durP1;ratioP1;P1;durP2;ratioP2;P2;SDS_P1;SDS_P2;PMS_P1;PMS_P2;Temp;Humidity;BMP_temperature;BMP_pressure;BME280_temperature;BME280_humidity;BME280_pressure;Samples;Min_cycle;Max_cycle;Signal;HPM_P1;HPM_P2
2022/08/29 00:02:17;;;;;;;24.08;10.65;;;;;;;16.23;100.00;101677.97;4977403;28;20194;-46
2022/08/29 00:04:43;;;;;;;20.13;10.40;;;;;;;16.21;100.00;101679.84;4977142;28;20209;-45
2022/08/29 00:07:08;;;;;;;21.85;9.85;;;;;;;16.19;100.00;101683.59;4972592;28;20260;-48
2022/08/29 00:09:34;;;;;;;29.52;11.30;;;;;;;16.14;100.00;101683.81;4980916;28;20182;-47
2022/08/29 00:11:59;;;;;;;30.30;11.70;;;;;;;16.13;100.00;101686.59;4977118;28;20253;-46
2022/08/29 00:14:25;;;;;;;18.27;10.50;;;;;;;16.26;100.00;101690.44;4982428;28;20201;-47
2022/08/29 00:16:51;;;;;;;21.13;11.02;;;;;;;16.32;100.00;101681.19;4977623;28;20281;-46
2022/08/29 00:19:16;;;;;;;21.77;11.48;;;;;;;16.24;100.00;101679.69;4983953;28;20186;-46
2022/08/29 00:21:42;;;;;;;22.38;10.80;;;;;;;16.12;100.00;101683.00;4982688;28;20209;-46
2022/08/29 00:24:07;;;;;;;20.77;11.05;;;;;;;16.15;100.00;101674.75;4977908;28;20186;-46
2022/08/29 00:26:34;;;;;;;18.30;9.45;;;;;;;16.20;100.00;101677.22;4978909;28;20214;-46
2022/08/29 00:28:59;;;;;;;20.73;10.63;;;;;;;16.11;100.00;101680.38;4983670;28;20181;-46
2022/08/29 00:31:25;;;;;;;16.00;10.65;;;;;;;16.09;100.00;101674.16;4984453;28;20892;-46
2022/08/29 00:33:50;;;;;;;15.90;10.07;;;;;;;16.14;100.00;101677.53;4987866;28;20568;-47
2022/08/29 00:36:16;;;;;;;24.55;11.45;;;;;;;16.08;100.00;101677.84;4980637;28;20272;-45
2022/08/29 00:38:42;;;;;;;19.60;10.82;;;;;;;16.06;100.00;101672.47;4981646;28;20192;-45
2022/08/29 00:41:07;;;;;;;21.40;10.07;;;;;;;16.13;100.00;101665.81;4981805;28;20182;-47
2022/08/29 00:43:35;;;;;;;17.15;10.07;;;;;;;16.14;100.00;101666.72;4982242;28;20223;-45
2022/08/29 00:46:24;;;;;;;17.88;10.00;;;;;;;16.09;100.00;101660.66;4983449;28;20706;-46
2022/08/29 00:48:58;;;;;;;18.85;10.35;;;;;;;16.06;100.00;101673.34;4976319;28;20618;-47
2022/08/29 00:51:23;;;;;;;22.38;11.63;;;;;;;16.11;100.00;101666.84;4982840;28;20202;-47
2022/08/29 00:53:56;;;;;;;18.05;11.35;;;;;;;16.05;100.00;101674.31;4978693;28;20182;-46
2022/08/29 00:56:23;;;;;;;14.75;9.38;;;;;;;16.14;100.00;101673.00;4986436;28;20639;-46
2022/08/29 00:58:53;;;;;;;12.90;9.10;;;;;;;16.11;100.00;101666.84;4983578;28;20197;-46
2022/08/29 01:01:19;;;;;;;15.85;10.45;;;;;;;16.03;100.00;101668.09;4982921;28;20186;-47
2022/08/29 01:03:46;;;;;;;16.60;10.32;;;;;;;16.02;100.00;101677.16;4978498;28;20194;-46
2022/08/29 01:06:15;;;;;;;19.08;9.93;;;;;;;16.01;100.00;101670.00;4979608;28;20722;-45
2022/08/29 01:08:42;;;;;;;18.40;10.50;;;;;;;15.98;100.00;101678.28;4984543;28;20182;-47
2022/08/29 01:13:54;;;;;;;15.63;9.93;;;;;;;15.94;100.00;101676.66;4983273;28;20573;-44
2022/08/29 01:16:21;;;;;;;15.63;9.57;;;;;;;15.92;100.00;101683.97;4984245;28;20275;-44
2022/08/29 01:18:50;;;;;;;15.77;9.70;;;;;;;15.94;100.00;101690.19;4976040;28;20225;-46
2022/08/29 01:21:15;;;;;;;14.32;10.52;;;;;;;15.93;100.00;101690.25;4980461;28;20212;-44
2022/08/29 01:23:56;;;;;;;13.10;9.18;;;;;;;16.01;100.00;101682.66;4984723;28;20189;-44
2022/08/29 01:26:25;;;;;;;11.90;9.00;;;;;;;16.00;100.00;101679.03;4978092;28;20227;-47
2022/08/29 01:28:51;;;;;;;14.18;9.18;;;;;;;15.97;100.00;101681.91;4978579;28;20217;-46
2022/08/29 01:31:21;;;;;;;15.23;10.27;;;;;;;15.76;100.00;101700.00;4980240;28;20264;-47
2022/08/29 01:33:52;;;;;;;14.32;9.82;;;;;;;15.79;100.00;101694.47;4983189;28;20202;-45
2022/08/29 01:36:25;;;;;;;12.10;9.10;;;;;;;15.89;100.00;101685.91;4979126;28;20257;-46
2022/08/29 01:38:50;;;;;;;18.67;10.73;;;;;;;15.78;100.00;101700.78;4984950;28;20718;-45
2022/08/29 01:41:20;;;;;;;18.83;11.35;;;;;;;15.81;100.00;101695.28;4976987;28;20201;-46
2022/08/29 01:43:50;;;;;;;17.15;11.18;;;;;;;15.85;100.00;101685.16;4980815;28;20592;-45
2022/08/29 01:46:21;;;;;;;14.43;9.82;;;;;;;15.93;100.00;101690.25;4982829;28;20205;-46
2022/08/29 01:48:47;;;;;;;19.48;10.85;;;;;;;15.94;100.00;101691.97;4977791;28;20256;-45
2022/08/29 01:51:13;;;;;;;14.15;10.30;;;;;;;15.89;100.00;101689.50;4978584;28;20185;-47
2022/08/29 01:53:40;;;;;;;12.10;9.80;;;;;;;15.91;100.00;101687.59;4977775;28;20221;-45
2022/08/29 01:56:21;;;;;;;15.40;10.60;;;;;;;15.92;100.00;101691.16;4981913;28;20303;-47
2022/08/29 01:58:49;;;;;;;13.52;10.32;;;;;;;15.91;100.00;101687.59;4977959;28;20201;-48
2022/08/29 02:01:17;;;;;;;11.95;9.65;;;;;;;15.90;100.00;101696.66;4973671;28;20289;-47
2022/08/29 02:03:44;;;;;;;10.68;9.10;;;;;;;16.03;100.00;101703.25;4974136;28;20535;-48
2022/08/29 02:06:09;;;;;;;13.25;9.32;;;;;;;15.90;100.00;101702.06;4984672;28;20623;-48
2022/08/29 02:08:36;;;;;;;11.05;9.48;;;;;;;15.98;100.00;101699.00;4977901;28;20217;-48
2022/08/29 02:11:02;;;;;;;10.30;8.60;;;;;;;16.06;100.00;101703.09;4984223;28;20189;-49
2022/08/29 02:13:28;;;;;;;10.23;8.48;;;;;;;16.05;100.00;101690.53;4972030;28;20201;-46
2022/08/29 02:15:53;;;;;;;10.15;8.70;;;;;;;16.02;100.00;101692.50;4975415;28;20218;-48
2022/08/29 02:18:20;;;;;;;11.90;8.27;;;;;;;15.99;100.00;101695.34;4981920;28;20198;-48
2022/08/29 02:20:45;;;;;;;9.10;7.35;;;;;;;16.07;100.00;101709.41;4976580;28;20170;-49
2022/08/29 02:23:11;;;;;;;9.45;8.40;;;;;;;16.00;100.00;101710.63;4972265;28;20285;-49
2022/08/29 02:25:40;;;;;;;8.40;7.55;;;;;;;16.03;100.00;101711.34;4973719;28;20706;-48
2022/08/29 02:28:06;;;;;;;9.02;8.10;;;;;;;16.02;100.00;101715.00;4984413;28;20189;-48
2022/08/29 02:30:32;;;;;;;7.78;6.97;;;;;;;16.03;100.00;101718.59;4980664;28;20271;-48
2022/08/29 02:32:58;;;;;;;7.78;7.00;;;;;;;15.99;100.00;101723.25;4973773;28;20190;-49
2022/08/29 02:35:24;;;;;;;10.32;6.55;;;;;;;16.04;100.00;101732.03;4972606;28;20700;-47
2022/08/29 02:37:51;;;;;;;6.95;6.25;;;;;;;15.98;100.00;101720.63;4976428;28;20747;-47
2022/08/29 02:40:17;;;;;;;7.32;5.97;;;;;;;15.98;100.00;101716.13;4980876;28;20196;-50
2022/08/29 02:42:42;;;;;;;8.65;5.60;;;;;;;16.06;100.00;101718.44;4978544;28;20178;-48
2022/08/29 02:45:09;;;;;;;9.45;5.43;;;;;;;16.06;100.00;101713.91;4971829;28;20216;-49
2022/08/29 02:47:35;;;;;;;7.70;4.72;;;;;;;16.10;100.00;101720.06;4974181;28;20194;-48
2022/08/29 02:50:07;;;;;;;6.82;4.47;;;;;;;16.14;100.00;101726.22;4975245;28;20186;-54
2022/08/29 02:52:33;;;;;;;6.55;4.30;;;;;;;16.12;100.00;101711.88;4981101;28;20188;-49
2022/08/29 02:54:58;;;;;;;4.55;4.20;;;;;;;16.13;100.00;101710.91;4980660;28;20209;-49
2022/08/29 02:57:24;;;;;;;5.55;4.82;;;;;;;16.08;100.00;101710.28;4985290;28;20214;-47
2022/08/29 02:59:50;;;;;;;6.63;4.68;;;;;;;16.08;100.00;101713.84;4976935;28;20717;-50
2022/08/29 03:02:16;;;;;;;5.18;4.05;;;;;;;16.13;100.00;101722.59;4975773;28;20649;-47
2022/08/29 03:04:41;;;;;;;5.25;4.00;;;;;;;16.18;100.00;101712.47;4975536;28;20785;-47
2022/08/29 03:07:07;;;;;;;6.63;4.07;;;;;;;16.06;100.00;101713.91;4976985;28;20575;-48
2022/08/29 03:09:32;;;;;;;6.35;4.05;;;;;;;16.11;100.00;101710.97;4978738;28;20185;-50
2022/08/29 03:11:58;;;;;;;6.53;3.80;;;;;;;16.06;100.00;101715.75;4986307;28;20268;-51
2022/08/29 03:14:24;;;;;;;5.75;3.85;;;;;;;16.04;100.00;101714.94;4976057;28;20189;-51
2022/08/29 03:16:50;;;;;;;5.90;4.05;;;;;;;16.04;100.00;101718.50;4972897;28;20723;-50
2022/08/29 03:19:15;;;;;;;3.90;3.50;;;;;;;15.94;100.00;101702.78;4976023;28;20185;-50
2022/08/29 03:21:43;;;;;;;6.10;4.22;;;;;;;15.97;100.00;101710.78;4983622;28;20274;-50
2022/08/29 03:24:09;;;;;;;5.13;3.70;;;;;;;15.99;100.00;101714.28;4970365;28;20212;-49
2022/08/29 03:26:36;;;;;;;3.95;3.55;;;;;;;15.94;100.00;101711.78;4972890;28;20224;-48
2022/08/29 03:29:02;;;;;;;4.65;3.78;;;;;;;15.93;100.00;101712.72;4971647;28;20246;-48
2022/08/29 03:31:36;;;;;;;5.32;3.60;;;;;;;15.96;100.00;101714.41;4962567;28;20659;-47
2022/08/29 03:34:01;;;;;;;6.53;3.70;;;;;;;15.93;100.00;101718.13;4959830;28;20281;-50
2022/08/29 03:36:27;;;;;;;4.10;3.70;;;;;;;15.86;100.00;101720.25;4975632;28;20288;-50
2022/08/29 03:38:53;;;;;;;4.53;3.45;;;;;;;15.85;100.00;101714.91;4971828;28;20198;-50
2022/08/29 03:41:24;;;;;;;3.60;3.30;;;;;;;15.78;100.00;101713.44;4974368;28;20214;-49
2022/08/29 03:43:50;;;;;;;4.28;3.88;;;;;;;15.79;100.00;101717.91;4985180;28;20196;-49
2022/08/29 03:46:16;;;;;;;3.97;3.63;;;;;;;15.79;100.00;101721.47;4981813;28;20288;-51
2022/08/29 03:48:41;;;;;;;4.30;3.63;;;;;;;15.82;100.00;101723.16;4984606;28;20312;-50
2022/08/29 03:51:07;;;;;;;4.00;3.42;;;;;;;15.85;100.00;101720.31;4975149;28;20264;-48
2022/08/29 03:53:33;;;;;;;6.68;4.03;;;;;;;15.80;100.00;101722.34;4978924;28;20189;-49
2022/08/29 03:55:59;;;;;;;4.35;3.30;;;;;;;15.90;100.00;101729.09;4984099;28;20283;-47
2022/08/29 03:58:24;;;;;;;4.00;3.42;;;;;;;15.88;100.00;101722.88;4979200;28;20244;-50
2022/08/29 04:00:50;;;;;;;3.55;3.30;;;;;;;15.82;100.00;101732.13;4975351;28;20245;-48
2022/08/29 04:03:15;;;;;;;3.97;3.67;;;;;;;15.86;100.00;101736.47;4977086;28;20225;-47
2022/08/29 04:05:41;;;;;;;7.68;3.85;;;;;;;15.86;100.00;101732.88;4982729;28;20220;-48
2022/08/29 04:08:07;;;;;;;4.82;3.30;;;;;;;15.89;100.00;101745.38;4981480;28;20536;-47
2022/08/29 04:10:38;;;;;;;3.88;3.03;;;;;;;15.84;100.00;101740.19;4978316;28;20281;-46
2022/08/29 04:13:05;;;;;;;4.25;3.22;;;;;;;15.83;100.00;101741.13;4975005;28;20236;-49
2022/08/29 04:15:32;;;;;;;3.65;3.35;;;;;;;15.84;100.00;101745.59;4978338;28;20213;-48
2022/08/29 04:18:00;;;;;;;4.03;3.60;;;;;;;15.84;100.00;101751.88;4978116;28;20228;-49
2022/08/29 04:20:29;;;;;;;3.92;3.55;;;;;;;15.86;100.00;101754.50;4978020;28;20198;-47
2022/08/29 04:22:56;;;;;;;3.70;3.40;;;;;;;15.84;100.00;101757.28;4977512;28;20547;-45
2022/08/29 04:25:23;;;;;;;3.80;3.47;;;;;;;15.83;100.00;101752.81;4977609;28;20209;-48
2022/08/29 04:27:50;;;;;;;8.27;3.55;;;;;;;15.73;100.00;101761.41;4981840;28;20174;-49
2022/08/29 04:30:18;;;;;;;4.15;3.20;;;;;;;15.75;100.00;101762.22;4983384;28;20224;-46
2022/08/29 04:32:44;;;;;;;3.83;3.53;;;;;;;15.73;100.00;101761.41;4974763;28;20201;-47
2022/08/29 04:35:11;;;;;;;5.18;3.40;;;;;;;15.82;100.00;101759.16;4989589;28;20205;-47
2022/08/29 04:37:38;;;;;;;3.90;3.28;;;;;;;15.88;100.00;101758.03;4978849;28;20221;-48
2022/08/29 04:40:05;;;;;;;5.25;3.95;;;;;;;15.81;100.00;101767.34;4975650;28;20194;-47
2022/08/29 04:42:31;;;;;;;5.18;3.78;;;;;;;15.80;100.00;101773.69;4976441;28;20193;-50
2022/08/29 04:44:57;;;;;;;3.78;3.47;;;;;;;15.73;100.00;101766.81;4981675;28;20209;-48
2022/08/29 04:47:22;;;;;;;4.80;3.40;;;;;;;15.84;100.00;101775.31;4977755;28;20194;-48
2022/08/29 04:49:54;;;;;;;5.45;3.67;;;;;;;15.66;100.00;101769.75;4980456;28;20630;-46
2022/08/29 04:52:19;;;;;;;5.00;3.40;;;;;;;15.71;100.00;101771.38;4978069;28;20186;-50
2022/08/29 04:54:45;;;;;;;5.75;3.90;;;;;;;15.66;100.00;101772.47;4973162;28;20209;-50
2022/08/29 04:57:21;;;;;;;3.70;3.50;;;;;;;15.63;100.00;101769.00;4967335;28;20823;-47
2022/08/29 04:59:55;;;;;;;5.32;3.85;;;;;;;15.60;100.00;101771.84;4974304;28;20189;-48
2022/08/29 05:02:21;;;;;;;6.10;3.67;;;;;;;15.64;100.00;101765.38;4976723;28;20201;-46
2022/08/29 05:04:51;;;;;;;4.22;3.72;;;;;;;15.56;100.00;101763.00;4974642;28;20363;-49
2022/08/29 05:07:21;;;;;;;5.65;3.55;;;;;;;15.62;100.00;101770.84;4979787;28;20502;-45
2022/08/29 05:10:05;;;;;;;4.95;3.58;;;;;;;15.69;100.00;101779.53;4978669;28;20276;-49
2022/08/29 05:12:32;;;;;;;4.25;3.40;;;;;;;15.75;100.00;101781.13;4979626;28;20194;-48
2022/08/29 05:14:58;;;;;;;5.20;3.22;;;;;;;15.78;100.00;101778.28;4976336;28;20304;-49
2022/08/29 05:17:24;;;;;;;3.72;3.42;;;;;;;15.68;100.00;101783.22;4973962;28;20245;-48
2022/08/29 05:19:50;;;;;;;4.22;3.42;;;;;;;15.67;100.00;101786.84;4979524;28;20564;-49
2022/08/29 05:22:18;;;;;;;3.28;2.75;;;;;;;15.78;100.00;101789.09;4982675;28;20209;-47
2022/08/29 05:24:44;;;;;;;4.07;2.55;;;;;;;15.76;100.00;101799.09;4977273;28;20224;-48
2022/08/29 05:27:13;;;;;;;3.83;2.90;;;;;;;15.82;100.00;101802.41;4973068;28;20821;-47
2022/08/29 05:29:44;;;;;;;4.05;3.00;;;;;;;15.84;100.00;101805.03;4973744;28;20695;-48
2022/08/29 05:32:10;;;;;;;4.97;2.50;;;;;;;15.89;100.00;101811.09;4976617;28;20194;-49
2022/08/29 05:34:37;;;;;;;5.18;2.70;;;;;;;15.88;100.00;101808.50;4983750;28;20288;-47
2022/08/29 05:37:09;;;;;;;4.07;2.53;;;;;;;15.86;100.00;101813.97;4974906;28;20297;-49
2022/08/29 05:39:36;;;;;;;3.42;2.65;;;;;;;15.84;100.00;101813.16;4976656;28;20868;-48
2022/08/29 05:42:03;;;;;;;3.72;2.50;;;;;;;15.87;100.00;101804.91;4986267;28;20185;-48
2022/08/29 05:44:30;;;;;;;2.83;2.22;;;;;;;15.94;100.00;101805.50;4984332;28;20212;-46
2022/08/29 05:46:55;;;;;;;6.22;2.60;;;;;;;15.94;100.00;101814.50;4984268;28;20190;-50
2022/08/29 05:49:21;;;;;;;2.90;2.30;;;;;;;15.90;100.00;101812.00;4987079;28;20721;-47
2022/08/29 05:51:50;;;;;;;2.78;2.15;;;;;;;15.97;100.00;101814.34;4976552;28;20201;-47
2022/08/29 05:54:15;;;;;;;3.95;2.50;;;;;;;15.93;100.00;101817.25;4974095;28;20988;-49
2022/08/29 05:56:41;;;;;;;3.33;2.20;;;;;;;15.97;100.00;101814.34;4981307;28;20217;-47
2022/08/29 05:59:07;;;;;;;2.50;2.10;;;;;;;15.95;100.00;101818.94;4978378;28;20189;-46
2022/08/29 06:01:33;;;;;;;3.95;2.00;;;;;;;15.93;100.00;101818.13;4982266;28;20281;-46
2022/08/29 06:03:59;;;;;;;3.00;2.10;;;;;;;16.00;100.00;101822.31;4980974;28;20189;-48
2022/08/29 06:06:27;;;;;;;8.35;2.70;;;;;;;15.94;100.00;101819.91;4979379;28;20317;-47
2022/08/29 06:08:53;;;;;;;2.20;2.10;;;;;;;16.02;100.00;101820.41;4979242;28;20182;-50
2022/08/29 06:11:22;;;;;;;1.95;1.85;;;;;;;16.01;100.00;101820.50;4991189;28;20559;-46
2022/08/29 06:13:48;;;;;;;5.22;2.10;;;;;;;16.10;100.00;101820.09;4987895;28;20239;-47
2022/08/29 06:16:16;;;;;;;2.25;1.65;;;;;;;16.13;100.00;101819.94;4989961;28;20214;-47
2022/08/29 06:18:42;;;;;;;3.67;2.13;;;;;;;16.11;100.00;101824.53;4974585;28;20741;-49
2022/08/29 06:21:10;;;;;;;2.70;1.90;;;;;;;16.01;100.00;101821.38;4973228;28;20273;-47
2022/08/29 06:23:36;;;;;;;2.75;1.58;;;;;;;16.11;100.00;101820.94;4976139;28;20248;-48
2022/08/29 06:26:02;;;;;;;2.55;1.73;;;;;;;16.14;100.00;101821.69;4982354;28;20288;-47
2022/08/29 06:28:30;;;;;;;2.83;1.85;;;;;;;16.07;100.00;101822.94;4981857;28;20228;-47
2022/08/29 06:30:56;;;;;;;3.75;1.80;;;;;;;16.12;100.00;101826.31;4979941;28;20591;-48
2022/08/29 06:33:22;;;;;;;2.35;1.83;;;;;;;16.17;100.00;101821.56;4971553;28;20198;-48
2022/08/29 06:35:48;;;;;;;2.03;1.70;;;;;;;16.19;100.00;101829.59;4981895;28;20227;-48
2022/08/29 06:38:13;;;;;;;2.97;1.65;;;;;;;16.22;100.00;101827.66;4980581;28;20224;-47
2022/08/29 06:40:39;;;;;;;2.42;1.73;;;;;;;16.22;100.00;101837.56;4987475;28;20280;-45
2022/08/29 06:43:04;;;;;;;2.75;1.80;;;;;;;16.18;100.00;101846.75;4979927;28;20189;-44
2022/08/29 06:45:29;;;;;;;3.15;1.73;;;;;;;16.20;100.00;101845.75;4974505;28;20220;-49
2022/08/29 06:47:55;;;;;;;2.63;1.60;;;;;;;16.24;100.00;101846.47;4978837;28;20228;-48
2022/08/29 06:50:20;;;;;;;2.55;1.63;;;;;;;16.30;100.00;101857.03;4978493;28;20190;-46
2022/08/29 06:52:46;;;;;;;2.47;1.52;;;;;;;16.22;100.00;101856.50;4973385;28;20232;-48
2022/08/29 06:55:11;;;;;;;2.60;1.75;;;;;;;16.23;100.00;101853.72;4972612;28;20206;-48
2022/08/29 06:57:43;;;;;;;3.35;1.70;;;;;;;16.20;100.00;101852.97;4983584;28;20216;-46
2022/08/29 07:00:13;;;;;;;2.92;2.00;;;;;;;16.22;100.00;101851.97;4979244;28;20649;-47
2022/08/29 07:02:39;;;;;;;2.15;1.50;;;;;;;16.14;100.00;101861.38;4974475;28;20193;-47
2022/08/29 07:05:06;;;;;;;1.77;1.42;;;;;;;16.16;100.00;101852.25;4971718;28;20237;-48
2022/08/29 07:07:32;;;;;;;3.95;1.65;;;;;;;16.18;100.00;101860.28;4972804;28;20181;-47
2022/08/29 07:09:59;;;;;;;4.68;1.67;;;;;;;16.22;100.00;101859.19;4978535;28;20233;-46
2022/08/29 07:12:25;;;;;;;1.70;1.60;;;;;;;16.33;100.00;101859.56;4979785;28;20189;-48
2022/08/29 07:14:50;;;;;;;2.15;1.40;;;;;;;16.34;100.00;101858.66;4972364;28;20246;-49
2022/08/29 07:17:16;;;;;;;1.75;1.63;;;;;;;16.32;100.00;101865.94;4976110;28;20288;-47
2022/08/29 07:19:41;;;;;;;2.45;1.55;;;;;;;16.28;100.00;101865.19;4980963;28;20177;-47
2022/08/29 07:22:07;;;;;;;1.80;1.40;;;;;;;16.34;100.00;101864.06;4983313;28;20190;-48
2022/08/29 07:24:33;;;;;;;1.27;1.20;;;;;;;16.45;100.00;101864.44;4978107;28;20288;-48
2022/08/29 07:26:59;;;;;;;1.48;1.30;;;;;;;16.46;100.00;101868.91;4977706;28;20213;-48
2022/08/29 07:29:25;;;;;;;1.83;1.30;;;;;;;16.41;100.00;101868.22;4987115;28;20188;-48
2022/08/29 07:31:52;;;;;;;1.75;1.25;;;;;;;16.47;100.00;101870.66;4973314;28;20225;-47
2022/08/29 07:34:21;;;;;;;4.65;1.55;;;;;;;16.48;100.00;101883.22;4974286;28;20265;-48
2022/08/29 07:36:46;;;;;;;3.38;1.40;;;;;;;16.53;100.00;101869.50;4975849;28;20897;-49
2022/08/29 07:39:16;;;;;;;1.23;1.08;;;;;;;16.52;100.00;101864.16;4977404;28;20194;-48
2022/08/29 07:41:43;;;;;;;3.28;1.52;;;;;;;16.53;100.00;101872.22;4981250;28;20201;-46
2022/08/29 07:44:10;;;;;;;2.47;1.10;;;;;;;16.57;100.00;101881.91;4981137;28;20264;-48
2022/08/29 07:46:35;;;;;;;2.75;1.27;;;;;;;16.67;100.00;101882.38;4977010;28;20197;-48
2022/08/29 07:49:02;;;;;;;1.77;1.58;;;;;;;16.68;100.00;101892.22;4975914;28;20969;-47
2022/08/29 07:51:27;;;;;;;1.30;1.20;;;;;;;16.65;100.00;101882.44;4985053;28;20276;-47
2022/08/29 07:53:55;;;;;;;4.28;1.30;;;;;;;16.66;100.00;101884.22;4981375;28;20265;-49
2022/08/29 07:56:26;;;;;;;3.58;1.35;;;;;;;16.67;100.00;101887.78;4975088;28;20772;-47
2022/08/29 07:58:53;;;;;;;2.90;1.23;;;;;;;16.74;100.00;101889.25;4971061;28;20193;-48
2022/08/29 08:01:19;;;;;;;2.53;1.00;;;;;;;16.79;100.00;101889.94;4976469;28;20192;-54
2022/08/29 08:03:45;;;;;;;2.58;1.38;;;;;;;16.95;100.00;101895.50;4979297;28;20186;-48
2022/08/29 08:06:10;;;;;;;2.38;1.30;;;;;;;17.02;100.00;101896.97;4980229;28;20760;-48
2022/08/29 08:08:37;;;;;;;2.25;1.20;;;;;;;16.99;100.00;101890.81;4976335;28;20190;-47
2022/08/29 08:11:04;;;;;;;3.58;1.02;;;;;;;17.13;98.56;101882.03;4975692;28;20677;-47
2022/08/29 08:13:30;;;;;;;1.13;0.80;;;;;;;17.06;95.99;101901.28;4984103;28;20182;-47
2022/08/29 08:15:56;;;;;;;2.70;0.82;;;;;;;17.12;94.03;101894.72;4981647;28;20300;-46
2022/08/29 08:18:23;;;;;;;4.03;1.02;;;;;;;17.14;94.20;101886.47;4977504;28;20285;-47
2022/08/29 08:20:49;;;;;;;3.85;0.80;;;;;;;17.10;93.38;101891.19;4974324;28;20244;-47
2022/08/29 08:23:15;;;;;;;2.10;0.80;;;;;;;17.07;92.62;101886.78;4976115;28;20194;-49
2022/08/29 08:25:41;;;;;;;1.98;0.90;;;;;;;17.14;92.24;101897.31;4979663;28;20202;-49
2022/08/29 08:28:07;;;;;;;2.90;0.82;;;;;;;17.15;92.01;101897.25;4978209;28;20281;-46
2022/08/29 08:30:33;;;;;;;2.55;0.80;;;;;;;17.18;92.81;101888.97;4963947;28;20624;-48
2022/08/29 08:32:59;;;;;;;2.40;1.15;;;;;;;17.08;92.12;101903.94;4975266;28;20189;-49
2022/08/29 08:35:24;;;;;;;5.28;1.10;;;;;;;17.12;92.40;101902.81;4981159;28;20241;-48
2022/08/29 08:37:50;;;;;;;2.00;0.85;;;;;;;17.13;91.83;101898.28;4981408;28;20222;-49
2022/08/29 08:40:26;;;;;;;5.97;1.10;;;;;;;17.19;90.37;101890.72;4977081;28;20189;-47
2022/08/29 08:43:00;;;;;;;4.97;1.20;;;;;;;17.25;90.52;101892.25;4982108;28;20268;-47
2022/08/29 08:45:35;;;;;;;2.85;0.98;;;;;;;17.27;90.88;101896.66;4960998;28;20316;-45
2022/08/29 08:48:06;;;;;;;1.48;0.60;;;;;;;17.18;91.09;101905.22;4976104;28;20289;-48
2022/08/29 08:50:48;;;;;;;2.33;0.95;;;;;;;17.15;91.15;101910.78;4977474;28;20186;-45
2022/08/29 08:53:38;;;;;;;1.55;0.93;;;;;;;17.13;91.78;101920.81;4979494;28;20277;-48
2022/08/29 08:56:30;;;;;;;2.90;1.27;;;;;;;17.09;93.19;101924.63;4979889;28;20225;-49
2022/08/29 08:59:15;;;;;;;3.35;1.27;;;;;;;16.82;95.07;101927.69;4982091;28;20216;-47
2022/08/29 09:01:55;;;;;;;2.22;1.30;;;;;;;16.82;95.58;101922.28;4976929;28;20184;-47
2022/08/29 09:04:55;;;;;;;6.93;0.90;;;;;;;16.85;95.18;101921.25;4976621;28;20244;-48
2022/08/29 09:07:29;;;;;;;2.20;1.00;;;;;;;16.94;95.24;101915.41;4987964;28;20237;-47
2022/08/29 09:10:30;;;;;;;1.75;0.77;;;;;;;17.06;95.79;101930.19;4976674;28;20559;-47
2022/08/29 09:12:59;;;;;;;1.48;0.82;;;;;;;17.07;95.84;101927.41;4969908;28;20205;-46
2022/08/29 09:15:55;;;;;;;2.40;1.23;;;;;;;17.04;96.16;101932.09;4972366;28;20214;-46
2022/08/29 09:18:27;;;;;;;4.57;1.00;;;;;;;17.06;95.74;101922.06;4974996;28;20255;-46
2022/08/29 09:20:53;;;;;;;1.58;0.90;;;;;;;16.99;94.44;101934.13;4987872;28;20625;-48
2022/08/29 09:23:24;;;;;;;2.15;0.80;;;;;;;17.03;94.71;101942.06;4976128;28;20261;-48
2022/08/29 09:25:50;;;;;;;4.25;1.02;;;;;;;16.89;95.92;101939.97;4938225;28;20213;-49
2022/08/29 09:28:16;;;;;;;1.40;0.73;;;;;;;16.80;95.20;101943.13;4986414;28;20236;-47
2022/08/29 09:31:03;;;;;;;1.65;0.60;;;;;;;16.86;94.32;101950.97;4986204;28;20653;-49
2022/08/29 09:33:41;;;;;;;1.88;1.10;;;;;;;16.93;93.91;101939.84;4977983;28;20367;-46
2022/08/29 09:36:12;;;;;;;1.58;1.13;;;;;;;16.95;92.72;101940.66;4977512;28;20256;-45
2022/08/29 09:38:37;;;;;;;2.35;0.85;;;;;;;16.94;93.39;101941.59;4985635;28;20200;-47
2022/08/29 09:41:09;;;;;;;4.32;1.25;;;;;;;16.89;93.34;101955.34;4992630;28;20181;-44
2022/08/29 09:43:37;;;;;;;2.90;0.90;;;;;;;16.92;92.98;101947.06;4983484;28;20189;-45
2022/08/29 09:46:17;;;;;;;3.47;0.98;;;;;;;16.94;93.42;101938.88;4989910;28;20559;-46
2022/08/29 09:48:54;;;;;;;1.45;1.00;;;;;;;17.00;94.04;101944.88;4980736;28;20213;-48
2022/08/29 09:51:24;;;;;;;3.92;1.15;;;;;;;16.95;94.03;101952.38;4972993;28;20170;-45
2022/08/29 09:53:52;;;;;;;2.10;1.00;;;;;;;16.89;93.93;101963.47;4982678;28;20198;-47
2022/08/29 09:56:22;;;;;;;2.97;0.73;;;;;;;16.96;94.28;101970.34;4985817;28;20257;-50
2022/08/29 09:59:15;;;;;;;1.92;1.00;;;;;;;17.06;94.93;101968.97;4972865;28;20691;-49
2022/08/29 10:01:41;;;;;;;4.45;1.00;;;;;;;17.05;94.69;101975.34;4972698;28;20186;-47
2022/08/29 10:04:07;;;;;;;4.55;0.90;;;;;;;17.04;93.41;101973.59;4972751;28;20630;-48
2022/08/29 10:06:38;;;;;;;4.28;1.27;;;;;;;16.91;93.98;101974.25;4973015;28;20174;-48
2022/08/29 10:09:22;;;;;;;0.77;0.57;;;;;;;16.92;93.95;101967.88;4972721;28;20257;-44
2022/08/29 10:11:54;;;;;;;1.88;0.70;;;;;;;16.97;94.42;101977.53;4979439;28;20189;-49
2022/08/29 10:14:34;;;;;;;3.70;0.93;;;;;;;16.96;94.26;101974.91;4989340;28;20671;-47
2022/08/29 10:20:08;;;;;;;1.88;0.75;;;;;;;16.92;93.94;101976.84;4979231;28;20204;-46
2022/08/29 10:23:11;;;;;;;4.57;0.90;;;;;;;16.83;92.84;101975.44;4991103;28;20190;-45
2022/08/29 10:25:40;;;;;;;4.22;0.88;;;;;;;16.96;93.24;101983.00;4930627;28;20312;-43
2022/08/29 10:28:47;;;;;;;0.82;0.70;;;;;;;16.96;94.22;101991.13;4979745;28;20196;-42
2022/08/29 10:31:45;;;;;;;3.20;0.70;;;;;;;17.00;93.46;101984.63;4969323;28;20225;-44
2022/08/29 10:34:31;;;;;;;2.72;0.80;;;;;;;16.94;92.33;101993.91;4965255;28;20198;-44
2022/08/29 10:37:09;;;;;;;4.28;0.80;;;;;;;16.98;92.39;101994.66;4932884;28;20225;-42
2022/08/29 10:39:47;;;;;;;2.65;1.00;;;;;;;17.04;92.00;101987.13;4979018;28;20235;-45
2022/08/29 10:42:18;;;;;;;2.95;0.80;;;;;;;17.17;91.72;101989.25;4986276;28;20648;-44
2022/08/29 10:45:09;;;;;;;1.60;0.90;;;;;;;17.21;90.82;101994.47;4982093;28;20212;-45
2022/08/29 10:47:38;;;;;;;1.52;0.75;;;;;;;17.21;91.33;101994.47;4979254;28;20217;-43
2022/08/29 10:50:32;;;;;;;3.17;1.00;;;;;;;17.10;91.42;101996.81;4975834;28;20625;-41
2022/08/29 10:53:06;;;;;;;1.55;0.85;;;;;;;17.07;92.14;101995.09;4973434;28;20361;-43
2022/08/29 10:55:34;;;;;;;1.83;0.60;;;;;;;17.04;92.65;101991.66;4981292;28;20241;-45
2022/08/29 10:58:22;;;;;;;2.55;1.02;;;;;;;17.06;92.59;101996.06;4961863;28;20224;-43
2022/08/29 11:00:54;;;;;;;4.45;1.20;;;;;;;16.99;92.38;101996.41;4977876;28;20214;-42
2022/08/29 11:03:41;;;;;;;4.80;1.10;;;;;;;16.98;92.07;101989.25;4977677;28;20228;-44
2022/08/29 11:06:18;;;;;;;4.03;0.90;;;;;;;17.00;91.24;102003.59;4982301;28;20255;-44
2022/08/29 11:09:01;;;;;;;1.45;0.80;;;;;;;16.99;91.21;101996.41;4985010;28;20206;-45
2022/08/29 11:11:29;;;;;;;4.72;1.10;;;;;;;17.00;91.40;102012.56;4981702;28;20190;-44
2022/08/29 11:14:01;;;;;;;1.55;0.73;;;;;;;17.08;90.90;102015.81;4972859;28;20280;-45
2022/08/29 11:16:49;;;;;;;3.92;0.90;;;;;;;17.17;91.63;101995.56;4975029;28;20205;-44
2022/08/29 11:19:22;;;;;;;2.55;0.70;;;;;;;17.23;90.87;101995.28;4978628;28;20185;-45
2022/08/29 11:22:20;;;;;;;2.95;0.70;;;;;;;17.17;87.94;101995.56;4976374;28;20723;-42
2022/08/29 11:24:56;;;;;;;2.05;0.60;;;;;;;17.17;88.01;102009.09;4973290;28;20225;-41
2022/08/29 11:27:34;;;;;;;1.50;0.68;;;;;;;17.15;88.43;102011.00;4980413;28;20184;-42
2022/08/29 11:30:09;;;;;;;2.75;0.80;;;;;;;17.09;87.89;102005.84;4977408;28;20197;-45
2022/08/29 11:32:51;;;;;;;3.20;0.90;;;;;;;17.12;87.39;102023.78;4972512;28;20672;-43
2022/08/29 11:35:47;;;;;;;1.27;0.68;;;;;;;17.18;86.95;102018.97;4974914;28;20210;-45